sensor_id;sensor_type;location;lat;lon;timestamp;P1;durP1;ratioP1;P2;durP2;ratioP2
16689;SDS011;8458;52.220;9.884;2023-06-14T00:01:01;1.80;;;1.70;;
16689;SDS011;8458;52.220;9.884;2023-06-14T00:03:31;1.87;;;1.63;;
16689;SDS011;8458;52.220;9.884;2023-06-14T00:05:57;2.70;;;2.00;;
16689;SDS011;8458;52.220;9.884;2023-06-14T00:08:24;3.60;;;2.00;;
16689;SDS011;8458;52.220;9.884;2023-06-14T00:10:51;2.30;;;1.77;;
16689;SDS011;8458;52.220;9.884;2023-06-14T00:13:17;4.40;;;1.70;;
16689;SDS011;8458;52.220;9.884;2023-06-14T00:15:44;2.37;;;1.67;;
16689;SDS011;8458;52.220;9.884;2023-06-14T00:18:12;2.00;;;1.90;;
16689;SDS011;8458;52.220;9.884;2023-06-14T00:20:40;2.10;;;1.90;;
16689;SDS011;8458;52.220;9.884;2023-06-14T00:23:07;1.90;;;1.80;;
16689;SDS011;8458;52.220;9.884;2023-06-14T00:25:34;2.20;;;1.83;;
16689;SDS011;8458;52.220;9.884;2023-06-14T00:28:00;1.97;;;1.87;;
16689;SDS011;8458;52.220;9.884;2023-06-14T00:30:27;2.20;;;1.70;;
16689;SDS011;8458;52.220;9.884;2023-06-14T00:32:55;2.17;;;2.07;;
16689;SDS011;8458;52.220;9.884;2023-06-14T00:35:23;2.23;;;2.10;;
16689;SDS011;8458;52.220;9.884;2023-06-14T00:37:50;2.20;;;2.10;;
16689;SDS011;8458;52.220;9.884;2023-06-14T00:40:16;2.07;;;1.90;;
16689;SDS011;8458;52.220;9.884;2023-06-14T00:42:43;2.03;;;1.70;;
16689;SDS011;8458;52.220;9.884;2023-06-14T00:45:10;2.37;;;2.00;;
16689;SDS011;8458;52.220;9.884;2023-06-14T00:47:36;1.93;;;1.70;;
16689;SDS011;8458;52.220;9.884;2023-06-14T00:50:06;3.80;;;1.70;;
16689;SDS011;8458;52.220;9.884;2023-06-14T00:52:35;2.20;;;1.90;;
16689;SDS011;8458;52.220;9.884;2023-06-14T00:55:02;1.80;;;1.70;;
16689;SDS011;8458;52.220;9.884;2023-06-14T00:57:29;1.93;;;1.70;;
16689;SDS011;8458;52.220;9.884;2023-06-14T00:59:56;2.23;;;2.10;;
16689;SDS011;8458;52.220;9.884;2023-06-14T01:02:22;1.80;;;1.70;;
16689;SDS011;8458;52.220;9.884;2023-06-14T01:04:50;2.33;;;1.87;;
16689;SDS011;8458;52.220;9.884;2023-06-14T01:07:19;2.23;;;1.80;;
16689;SDS011;8458;52.220;9.884;2023-06-14T01:09:56;2.30;;;2.10;;
16689;SDS011;8458;52.220;9.884;2023-06-14T01:12:35;1.70;;;1.50;;
16689;SDS011;8458;52.220;9.884;2023-06-14T01:15:05;3.27;;;2.33;;
16689;SDS011;8458;52.220;9.884;2023-06-14T01:17:33;2.10;;;1.90;;
16689;SDS011;8458;52.220;9.884;2023-06-14T01:20:00;2.17;;;1.97;;
16689;SDS011;8458;52.220;9.884;2023-06-14T01:22:28;1.90;;;1.80;;
16689;SDS011;8458;52.220;9.884;2023-06-14T01:24:56;2.30;;;2.17;;
16689;SDS011;8458;52.220;9.884;2023-06-14T01:27:23;2.17;;;1.97;;
16689;SDS011;8458;52.220;9.884;2023-06-14T01:29:54;3.57;;;2.00;;
16689;SDS011;8458;52.220;9.884;2023-06-14T01:32:22;2.90;;;1.97;;
16689;SDS011;8458;52.220;9.884;2023-06-14T01:34:50;2.30;;;2.10;;
16689;SDS011;8458;52.220;9.884;2023-06-14T01:37:17;2.10;;;2.00;;
16689;SDS011;8458;52.220;9.884;2023-06-14T01:39:45;3.33;;;1.90;;
16689;SDS011;8458;52.220;9.884;2023-06-14T01:42:15;5.03;;;2.10;;
16689;SDS011;8458;52.220;9.884;2023-06-14T01:44:43;2.90;;;2.13;;
16689;SDS011;8458;52.220;9.884;2023-06-14T01:47:10;1.90;;;1.63;;
16689;SDS011;8458;52.220;9.884;2023-06-14T01:49:38;2.07;;;1.77;;
16689;SDS011;8458;52.220;9.884;2023-06-14T01:52:04;1.90;;;1.80;;
16689;SDS011;8458;52.220;9.884;2023-06-14T01:54:34;4.03;;;1.60;;
16689;SDS011;8458;52.220;9.884;2023-06-14T01:57:03;2.47;;;1.90;;
16689;SDS011;8458;52.220;9.884;2023-06-14T01:59:31;1.93;;;1.80;;
16689;SDS011;8458;52.220;9.884;2023-06-14T02:02:00;2.63;;;2.00;;
16689;SDS011;8458;52.220;9.884;2023-06-14T02:04:26;2.13;;;2.00;;
16689;SDS011;8458;52.220;9.884;2023-06-14T02:06:53;2.93;;;1.90;;
16689;SDS011;8458;52.220;9.884;2023-06-14T02:09:19;2.93;;;2.00;;
16689;SDS011;8458;52.220;9.884;2023-06-14T02:11:46;4.43;;;2.20;;
16689;SDS011;8458;52.220;9.884;2023-06-14T02:14:12;2.30;;;2.10;;
16689;SDS011;8458;52.220;9.884;2023-06-14T02:16:41;2.10;;;1.73;;
16689;SDS011;8458;52.220;9.884;2023-06-14T02:19:13;4.00;;;2.47;;
16689;SDS011;8458;52.220;9.884;2023-06-14T02:21:40;2.77;;;1.87;;
16689;SDS011;8458;52.220;9.884;2023-06-14T02:24:06;2.40;;;2.10;;
16689;SDS011;8458;52.220;9.884;2023-06-14T02:26:33;1.80;;;1.70;;
16689;SDS011;8458;52.220;9.884;2023-06-14T02:28:59;2.07;;;1.87;;
16689;SDS011;8458;52.220;9.884;2023-06-14T02:31:26;2.13;;;1.93;;
16689;SDS011;8458;52.220;9.884;2023-06-14T02:33:55;2.10;;;1.90;;
16689;SDS011;8458;52.220;9.884;2023-06-14T02:36:21;2.07;;;1.97;;
16689;SDS011;8458;52.220;9.884;2023-06-14T02:38:49;2.17;;;2.07;;
16689;SDS011;8458;52.220;9.884;2023-06-14T02:41:15;3.40;;;2.10;;
16689;SDS011;8458;52.220;9.884;2023-06-14T02:43:42;2.60;;;2.03;;
16689;SDS011;8458;52.220;9.884;2023-06-14T02:46:09;2.03;;;1.90;;
16689;SDS011;8458;52.220;9.884;2023-06-14T02:48:36;5.47;;;2.07;;
16689;SDS011;8458;52.220;9.884;2023-06-14T02:51:04;2.13;;;1.90;;
16689;SDS011;8458;52.220;9.884;2023-06-14T02:53:31;2.33;;;1.80;;
16689;SDS011;8458;52.220;9.884;2023-06-14T02:55:57;3.30;;;1.90;;
16689;SDS011;8458;52.220;9.884;2023-06-14T02:58:24;2.07;;;1.80;;
16689;SDS011;8458;52.220;9.884;2023-06-14T03:00:51;2.10;;;1.90;;
16689;SDS011;8458;52.220;9.884;2023-06-14T03:03:18;2.13;;;2.00;;
16689;SDS011;8458;52.220;9.884;2023-06-14T03:05:47;1.90;;;1.80;;
16689;SDS011;8458;52.220;9.884;2023-06-14T03:08:16;2.20;;;2.00;;
16689;SDS011;8458;52.220;9.884;2023-06-14T03:10:44;1.90;;;1.80;;
16689;SDS011;8458;52.220;9.884;2023-06-14T03:13:11;2.53;;;2.00;;
16689;SDS011;8458;52.220;9.884;2023-06-14T03:15:38;2.83;;;2.13;;
16689;SDS011;8458;52.220;9.884;2023-06-14T03:18:07;2.17;;;2.07;;
16689;SDS011;8458;52.220;9.884;2023-06-14T03:20:34;2.30;;;2.20;;
16689;SDS011;8458;52.220;9.884;2023-06-14T03:23:01;2.67;;;2.57;;
16689;SDS011;8458;52.220;9.884;2023-06-14T03:25:29;3.10;;;2.10;;
16689;SDS011;8458;52.220;9.884;2023-06-14T03:27:56;2.30;;;2.17;;
16689;SDS011;8458;52.220;9.884;2023-06-14T03:30:23;2.60;;;2.40;;
16689;SDS011;8458;52.220;9.884;2023-06-14T03:32:49;2.83;;;2.30;;
16689;SDS011;8458;52.220;9.884;2023-06-14T03:35:17;2.70;;;2.50;;
16689;SDS011;8458;52.220;9.884;2023-06-14T03:37:43;2.23;;;2.00;;
16689;SDS011;8458;52.220;9.884;2023-06-14T03:40:11;1.90;;;1.80;;
16689;SDS011;8458;52.220;9.884;2023-06-14T03:42:39;3.33;;;2.00;;
16689;SDS011;8458;52.220;9.884;2023-06-14T03:45:06;2.33;;;1.80;;
16689;SDS011;8458;52.220;9.884;2023-06-14T03:47:33;2.17;;;2.03;;
16689;SDS011;8458;52.220;9.884;2023-06-14T03:50:00;1.93;;;1.80;;
16689;SDS011;8458;52.220;9.884;2023-06-14T03:52:27;1.70;;;1.60;;
16689;SDS011;8458;52.220;9.884;2023-06-14T03:54:54;1.97;;;1.87;;
16689;SDS011;8458;52.220;9.884;2023-06-14T03:57:21;2.00;;;1.77;;
16689;SDS011;8458;52.220;9.884;2023-06-14T03:59:50;2.27;;;2.07;;
16689;SDS011;8458;52.220;9.884;2023-06-14T04:02:17;2.37;;;1.90;;
16689;SDS011;8458;52.220;9.884;2023-06-14T04:04:44;2.13;;;1.93;;
16689;SDS011;8458;52.220;9.884;2023-06-14T04:07:11;2.20;;;2.00;;
16689;SDS011;8458;52.220;9.884;2023-06-14T04:09:38;2.20;;;2.00;;
16689;SDS011;8458;52.220;9.884;2023-06-14T04:12:05;2.97;;;2.17;;
16689;SDS011;8458;52.220;9.884;2023-06-14T04:14:33;3.03;;;2.00;;
16689;SDS011;8458;52.220;9.884;2023-06-14T04:17:01;2.83;;;2.07;;
16689;SDS011;8458;52.220;9.884;2023-06-14T04:19:28;12.80;;;2.57;;
16689;SDS011;8458;52.220;9.884;2023-06-14T04:21:54;8.10;;;3.03;;
16689;SDS011;8458;52.220;9.884;2023-06-14T04:24:21;14.87;;;3.23;;
16689;SDS011;8458;52.220;9.884;2023-06-14T04:26:48;10.83;;;3.27;;
16689;SDS011;8458;52.220;9.884;2023-06-14T04:29:16;6.83;;;3.30;;
16689;SDS011;8458;52.220;9.884;2023-06-14T04:31:44;8.33;;;2.77;;
16689;SDS011;8458;52.220;9.884;2023-06-14T04:34:13;7.57;;;2.50;;
16689;SDS011;8458;52.220;9.884;2023-06-14T04:36:41;5.23;;;2.43;;
16689;SDS011;8458;52.220;9.884;2023-06-14T04:39:08;3.70;;;1.80;;
16689;SDS011;8458;52.220;9.884;2023-06-14T04:41:34;3.53;;;1.80;;
16689;SDS011;8458;52.220;9.884;2023-06-14T04:44:02;2.80;;;1.90;;
16689;SDS011;8458;52.220;9.884;2023-06-14T04:46:28;1.90;;;1.50;;
16689;SDS011;8458;52.220;9.884;2023-06-14T04:48:57;2.00;;;1.57;;
16689;SDS011;8458;52.220;9.884;2023-06-14T04:51:28;1.87;;;1.77;;
16689;SDS011;8458;52.220;9.884;2023-06-14T04:53:56;1.87;;;1.57;;
16689;SDS011;8458;52.220;9.884;2023-06-14T04:56:23;1.83;;;1.70;;
16689;SDS011;8458;52.220;9.884;2023-06-14T04:58:50;3.33;;;1.80;;
16689;SDS011;8458;52.220;9.884;2023-06-14T05:01:16;2.23;;;1.70;;
16689;SDS011;8458;52.220;9.884;2023-06-14T05:03:43;1.60;;;1.50;;
16689;SDS011;8458;52.220;9.884;2023-06-14T05:06:10;2.33;;;1.57;;
16689;SDS011;8458;52.220;9.884;2023-06-14T05:08:38;3.63;;;1.80;;
16689;SDS011;8458;52.220;9.884;2023-06-14T05:11:05;1.57;;;1.47;;
16689;SDS011;8458;52.220;9.884;2023-06-14T05:13:31;3.00;;;1.47;;
16689;SDS011;8458;52.220;9.884;2023-06-14T05:15:59;3.03;;;1.80;;
16689;SDS011;8458;52.220;9.884;2023-06-14T05:18:26;1.90;;;1.70;;
16689;SDS011;8458;52.220;9.884;2023-06-14T05:20:53;1.73;;;1.50;;
16689;SDS011;8458;52.220;9.884;2023-06-14T05:23:19;2.00;;;1.80;;
16689;SDS011;8458;52.220;9.884;2023-06-14T05:25:47;1.87;;;1.77;;
16689;SDS011;8458;52.220;9.884;2023-06-14T05:28:13;1.80;;;1.60;;
16689;SDS011;8458;52.220;9.884;2023-06-14T05:30:41;1.43;;;1.33;;
16689;SDS011;8458;52.220;9.884;2023-06-14T05:33:08;3.13;;;1.90;;
16689;SDS011;8458;52.220;9.884;2023-06-14T05:35:34;2.10;;;1.33;;
16689;SDS011;8458;52.220;9.884;2023-06-14T05:38:01;3.67;;;1.97;;
16689;SDS011;8458;52.220;9.884;2023-06-14T05:40:27;3.63;;;1.57;;
16689;SDS011;8458;52.220;9.884;2023-06-14T05:42:55;1.80;;;1.40;;
16689;SDS011;8458;52.220;9.884;2023-06-14T05:45:22;3.33;;;1.57;;
16689;SDS011;8458;52.220;9.884;2023-06-14T05:47:48;2.20;;;1.43;;
16689;SDS011;8458;52.220;9.884;2023-06-14T05:50:15;1.40;;;1.30;;
16689;SDS011;8458;52.220;9.884;2023-06-14T05:52:42;1.97;;;1.60;;
16689;SDS011;8458;52.220;9.884;2023-06-14T05:55:08;1.37;;;1.20;;
16689;SDS011;8458;52.220;9.884;2023-06-14T05:57:37;2.03;;;1.10;;
16689;SDS011;8458;52.220;9.884;2023-06-14T06:00:05;2.23;;;1.40;;
16689;SDS011;8458;52.220;9.884;2023-06-14T06:02:39;2.27;;;1.67;;
16689;SDS011;8458;52.220;9.884;2023-06-14T06:05:06;1.67;;;1.37;;
16689;SDS011;8458;52.220;9.884;2023-06-14T06:07:33;1.50;;;1.40;;
16689;SDS011;8458;52.220;9.884;2023-06-14T06:10:00;1.93;;;1.63;;
16689;SDS011;8458;52.220;9.884;2023-06-14T06:12:26;1.90;;;1.40;;
16689;SDS011;8458;52.220;9.884;2023-06-14T06:14:53;3.43;;;1.80;;
16689;SDS011;8458;52.220;9.884;2023-06-14T06:17:21;2.10;;;1.90;;
16689;SDS011;8458;52.220;9.884;2023-06-14T06:19:48;2.27;;;2.03;;
16689;SDS011;8458;52.220;9.884;2023-06-14T06:22:14;2.57;;;1.60;;
16689;SDS011;8458;52.220;9.884;2023-06-14T06:24:42;3.83;;;1.90;;
16689;SDS011;8458;52.220;9.884;2023-06-14T06:27:08;1.80;;;1.50;;
16689;SDS011;8458;52.220;9.884;2023-06-14T06:29:35;1.67;;;1.57;;
16689;SDS011;8458;52.220;9.884;2023-06-14T06:32:02;4.30;;;1.63;;
16689;SDS011;8458;52.220;9.884;2023-06-14T06:34:30;2.50;;;1.80;;
16689;SDS011;8458;52.220;9.884;2023-06-14T06:36:56;1.60;;;1.50;;
16689;SDS011;8458;52.220;9.884;2023-06-14T06:39:23;1.90;;;1.80;;
16689;SDS011;8458;52.220;9.884;2023-06-14T06:41:49;1.97;;;1.57;;
16689;SDS011;8458;52.220;9.884;2023-06-14T06:44:16;2.93;;;1.80;;
16689;SDS011;8458;52.220;9.884;2023-06-14T06:46:43;1.87;;;1.40;;
16689;SDS011;8458;52.220;9.884;2023-06-14T06:49:09;2.27;;;1.60;;
16689;SDS011;8458;52.220;9.884;2023-06-14T06:51:40;1.60;;;1.50;;
16689;SDS011;8458;52.220;9.884;2023-06-14T06:54:07;1.53;;;1.40;;
16689;SDS011;8458;52.220;9.884;2023-06-14T06:56:34;2.53;;;1.60;;
16689;SDS011;8458;52.220;9.884;2023-06-14T06:59:01;1.53;;;1.30;;
16689;SDS011;8458;52.220;9.884;2023-06-14T07:01:27;3.37;;;1.50;;
16689;SDS011;8458;52.220;9.884;2023-06-14T07:03:54;1.63;;;1.20;;
16689;SDS011;8458;52.220;9.884;2023-06-14T07:06:20;3.60;;;1.50;;
16689;SDS011;8458;52.220;9.884;2023-06-14T07:08:48;2.03;;;1.23;;
16689;SDS011;8458;52.220;9.884;2023-06-14T07:11:15;1.20;;;1.10;;
16689;SDS011;8458;52.220;9.884;2023-06-14T07:13:41;1.97;;;1.40;;
16689;SDS011;8458;52.220;9.884;2023-06-14T07:16:07;1.40;;;1.30;;
16689;SDS011;8458;52.220;9.884;2023-06-14T07:18:34;1.30;;;1.20;;
16689;SDS011;8458;52.220;9.884;2023-06-14T07:21:02;1.27;;;1.27;;
16689;SDS011;8458;52.220;9.884;2023-06-14T07:23:29;1.47;;;1.30;;
16689;SDS011;8458;52.220;9.884;2023-06-14T07:25:57;1.20;;;1.20;;
16689;SDS011;8458;52.220;9.884;2023-06-14T07:28:23;2.03;;;1.30;;
16689;SDS011;8458;52.220;9.884;2023-06-14T07:30:50;1.30;;;1.20;;
16689;SDS011;8458;52.220;9.884;2023-06-14T07:33:16;2.03;;;1.40;;
16689;SDS011;8458;52.220;9.884;2023-06-14T07:35:43;1.23;;;1.10;;
16689;SDS011;8458;52.220;9.884;2023-06-14T07:38:09;1.50;;;1.40;;
16689;SDS011;8458;52.220;9.884;2023-06-14T07:40:35;1.80;;;1.20;;
16689;SDS011;8458;52.220;9.884;2023-06-14T07:43:03;2.07;;;1.30;;
16689;SDS011;8458;52.220;9.884;2023-06-14T07:45:30;1.83;;;1.20;;
16689;SDS011;8458;52.220;9.884;2023-06-14T07:47:56;1.33;;;1.20;;
16689;SDS011;8458;52.220;9.884;2023-06-14T07:50:23;1.23;;;1.10;;
16689;SDS011;8458;52.220;9.884;2023-06-14T07:52:49;1.10;;;1.10;;
16689;SDS011;8458;52.220;9.884;2023-06-14T07:55:16;1.30;;;1.10;;
16689;SDS011;8458;52.220;9.884;2023-06-14T07:57:42;1.17;;;1.17;;
16689;SDS011;8458;52.220;9.884;2023-06-14T08:00:11;1.20;;;1.10;;
16689;SDS011;8458;52.220;9.884;2023-06-14T08:02:40;1.10;;;1.00;;
16689;SDS011;8458;52.220;9.884;2023-06-14T08:05:08;1.03;;;1.03;;
16689;SDS011;8458;52.220;9.884;2023-06-14T08:07:35;1.07;;;1.00;;
16689;SDS011;8458;52.220;9.884;2023-06-14T08:10:02;1.20;;;1.10;;
16689;SDS011;8458;52.220;9.884;2023-06-14T08:12:29;1.13;;;1.13;;
16689;SDS011;8458;52.220;9.884;2023-06-14T08:14:55;0.77;;;0.77;;
16689;SDS011;8458;52.220;9.884;2023-06-14T08:17:23;1.80;;;1.00;;
16689;SDS011;8458;52.220;9.884;2023-06-14T08:19:49;1.20;;;1.10;;
16689;SDS011;8458;52.220;9.884;2023-06-14T08:22:16;1.23;;;1.10;;
16689;SDS011;8458;52.220;9.884;2023-06-14T08:24:43;1.30;;;1.20;;
16689;SDS011;8458;52.220;9.884;2023-06-14T08:27:09;1.20;;;1.10;;
16689;SDS011;8458;52.220;9.884;2023-06-14T08:29:36;1.23;;;1.20;;
16689;SDS011;8458;52.220;9.884;2023-06-14T08:32:05;2.33;;;1.30;;
16689;SDS011;8458;52.220;9.884;2023-06-14T08:34:33;2.00;;;1.10;;
16689;SDS011;8458;52.220;9.884;2023-06-14T08:36:59;1.70;;;1.00;;
16689;SDS011;8458;52.220;9.884;2023-06-14T08:39:26;2.27;;;1.20;;
16689;SDS011;8458;52.220;9.884;2023-06-14T08:41:53;1.17;;;1.07;;
16689;SDS011;8458;52.220;9.884;2023-06-14T08:44:22;1.00;;;1.00;;
16689;SDS011;8458;52.220;9.884;2023-06-14T08:46:49;1.63;;;1.20;;
16689;SDS011;8458;52.220;9.884;2023-06-14T08:49:18;1.27;;;1.03;;
16689;SDS011;8458;52.220;9.884;2023-06-14T08:51:47;0.90;;;0.90;;
16689;SDS011;8458;52.220;9.884;2023-06-14T08:54:20;3.17;;;1.00;;
16689;SDS011;8458;52.220;9.884;2023-06-14T08:56:47;1.00;;;0.90;;
16689;SDS011;8458;52.220;9.884;2023-06-14T08:59:13;0.80;;;0.80;;
16689;SDS011;8458;52.220;9.884;2023-06-14T09:01:43;1.23;;;0.90;;
16689;SDS011;8458;52.220;9.884;2023-06-14T09:04:12;1.00;;;0.90;;
16689;SDS011;8458;52.220;9.884;2023-06-14T09:06:39;0.80;;;0.80;;
16689;SDS011;8458;52.220;9.884;2023-06-14T09:09:07;0.70;;;0.70;;
16689;SDS011;8458;52.220;9.884;2023-06-14T09:11:34;1.53;;;1.00;;
16689;SDS011;8458;52.220;9.884;2023-06-14T09:14:01;1.23;;;1.00;;
16689;SDS011;8458;52.220;9.884;2023-06-14T09:16:27;1.67;;;1.03;;
16689;SDS011;8458;52.220;9.884;2023-06-14T09:18:54;0.97;;;0.97;;
16689;SDS011;8458;52.220;9.884;2023-06-14T09:21:20;1.23;;;0.90;;
16689;SDS011;8458;52.220;9.884;2023-06-14T09:23:47;1.53;;;0.97;;
16689;SDS011;8458;52.220;9.884;2023-06-14T09:26:15;1.03;;;1.00;;
16689;SDS011;8458;52.220;9.884;2023-06-14T09:28:44;0.90;;;0.90;;
16689;SDS011;8458;52.220;9.884;2023-06-14T09:31:12;1.33;;;0.93;;
16689;SDS011;8458;52.220;9.884;2023-06-14T09:33:41;1.13;;;0.90;;
16689;SDS011;8458;52.220;9.884;2023-06-14T09:36:12;0.90;;;0.90;;
16689;SDS011;8458;52.220;9.884;2023-06-14T09:38:41;1.83;;;1.00;;
16689;SDS011;8458;52.220;9.884;2023-06-14T09:41:08;1.07;;;0.90;;
16689;SDS011;8458;52.220;9.884;2023-06-14T09:43:36;1.20;;;0.90;;
16689;SDS011;8458;52.220;9.884;2023-06-14T09:46:03;1.43;;;0.90;;
16689;SDS011;8458;52.220;9.884;2023-06-14T09:48:31;1.07;;;0.93;;
16689;SDS011;8458;52.220;9.884;2023-06-14T09:50:57;1.07;;;0.97;;
16689;SDS011;8458;52.220;9.884;2023-06-14T09:53:25;1.10;;;1.00;;
16689;SDS011;8458;52.220;9.884;2023-06-14T09:55:53;1.23;;;1.00;;
16689;SDS011;8458;52.220;9.884;2023-06-14T09:58:23;1.20;;;1.10;;
16689;SDS011;8458;52.220;9.884;2023-06-14T10:00:53;1.42;;;1.00;;
16689;SDS011;8458;52.220;9.884;2023-06-14T10:03:21;1.23;;;1.00;;
16689;SDS011;8458;52.220;9.884;2023-06-14T10:05:51;0.90;;;0.90;;
16689;SDS011;8458;52.220;9.884;2023-06-14T10:08:19;1.08;;;1.00;;
16689;SDS011;8458;52.220;9.884;2023-06-14T10:10:50;1.13;;;1.00;;
16689;SDS011;8458;52.220;9.884;2023-06-14T10:13:17;0.88;;;0.88;;
16689;SDS011;8458;52.220;9.884;2023-06-14T10:15:48;0.95;;;0.95;;
16689;SDS011;8458;52.220;9.884;2023-06-14T10:18:26;1.20;;;1.10;;
16689;SDS011;8458;52.220;9.884;2023-06-14T10:21:02;1.02;;;0.98;;
16689;SDS011;8458;52.220;9.884;2023-06-14T10:23:35;1.20;;;1.10;;
16689;SDS011;8458;52.220;9.884;2023-06-14T10:26:06;2.28;;;1.00;;
16689;SDS011;8458;52.220;9.884;2023-06-14T10:28:33;1.67;;;1.20;;
16689;SDS011;8458;52.220;9.884;2023-06-14T10:31:06;1.95;;;1.10;;
16689;SDS011;8458;52.220;9.884;2023-06-14T10:33:33;0.95;;;0.95;;
16689;SDS011;8458;52.220;9.884;2023-06-14T10:36:07;0.90;;;0.90;;
16689;SDS011;8458;52.220;9.884;2023-06-14T10:38:36;1.48;;;1.05;;
16689;SDS011;8458;52.220;9.884;2023-06-14T10:41:03;1.30;;;1.13;;
16689;SDS011;8458;52.220;9.884;2023-06-14T10:43:31;1.88;;;1.10;;
16689;SDS011;8458;52.220;9.884;2023-06-14T10:46:18;1.50;;;1.08;;
16689;SDS011;8458;52.220;9.884;2023-06-14T10:48:48;1.83;;;1.40;;
16689;SDS011;8458;52.220;9.884;2023-06-14T10:51:15;6.70;;;1.80;;
16689;SDS011;8458;52.220;9.884;2023-06-14T10:53:45;3.15;;;1.40;;
16689;SDS011;8458;52.220;9.884;2023-06-14T10:56:22;1.23;;;1.20;;
16689;SDS011;8458;52.220;9.884;2023-06-14T10:58:51;1.35;;;1.25;;
16689;SDS011;8458;52.220;9.884;2023-06-14T11:01:19;1.55;;;1.38;;
16689;SDS011;8458;52.220;9.884;2023-06-14T11:04:00;2.67;;;1.33;;
16689;SDS011;8458;52.220;9.884;2023-06-14T11:06:35;2.50;;;1.30;;
16689;SDS011;8458;52.220;9.884;2023-06-14T11:09:19;1.20;;;1.10;;
16689;SDS011;8458;52.220;9.884;2023-06-14T11:12:03;1.20;;;1.20;;
16689;SDS011;8458;52.220;9.884;2023-06-14T11:14:31;1.40;;;1.30;;
16689;SDS011;8458;52.220;9.884;2023-06-14T11:16:59;1.48;;;1.27;;
16689;SDS011;8458;52.220;9.884;2023-06-14T11:19:26;1.50;;;1.40;;
16689;SDS011;8458;52.220;9.884;2023-06-14T11:21:53;1.10;;;1.10;;
16689;SDS011;8458;52.220;9.884;2023-06-14T11:24:20;1.60;;;1.48;;
16689;SDS011;8458;52.220;9.884;2023-06-14T11:26:47;5.70;;;1.67;;
16689;SDS011;8458;52.220;9.884;2023-06-14T11:29:14;2.88;;;1.42;;
16689;SDS011;8458;52.220;9.884;2023-06-14T11:31:42;2.13;;;1.55;;
16689;SDS011;8458;52.220;9.884;2023-06-14T11:34:11;3.13;;;1.73;;
16689;SDS011;8458;52.220;9.884;2023-06-14T11:36:38;1.70;;;1.35;;
16689;SDS011;8458;52.220;9.884;2023-06-14T11:39:05;3.10;;;1.50;;
16689;SDS011;8458;52.220;9.884;2023-06-14T11:41:35;2.30;;;1.58;;
16689;SDS011;8458;52.220;9.884;2023-06-14T11:44:02;1.63;;;1.20;;
16689;SDS011;8458;52.220;9.884;2023-06-14T11:46:29;1.95;;;1.40;;
16689;SDS011;8458;52.220;9.884;2023-06-14T11:48:56;1.65;;;1.40;;
16689;SDS011;8458;52.220;9.884;2023-06-14T11:51:24;2.92;;;1.40;;
16689;SDS011;8458;52.220;9.884;2023-06-14T11:53:51;1.80;;;1.70;;
16689;SDS011;8458;52.220;9.884;2023-06-14T11:56:18;2.85;;;1.50;;
16689;SDS011;8458;52.220;9.884;2023-06-14T11:58:45;3.33;;;1.40;;
16689;SDS011;8458;52.220;9.884;2023-06-14T12:01:14;2.08;;;1.42;;
16689;SDS011;8458;52.220;9.884;2023-06-14T12:03:46;1.40;;;1.30;;
16689;SDS011;8458;52.220;9.884;2023-06-14T12:06:14;1.70;;;1.60;;
16689;SDS011;8458;52.220;9.884;2023-06-14T12:08:42;1.73;;;1.60;;
16689;SDS011;8458;52.220;9.884;2023-06-14T12:11:10;1.50;;;1.40;;
16689;SDS011;8458;52.220;9.884;2023-06-14T12:13:38;1.77;;;1.40;;
16689;SDS011;8458;52.220;9.884;2023-06-14T12:16:06;2.05;;;1.50;;
16689;SDS011;8458;52.220;9.884;2023-06-14T12:18:33;2.20;;;1.70;;
16689;SDS011;8458;52.220;9.884;2023-06-14T12:21:01;1.35;;;1.25;;
16689;SDS011;8458;52.220;9.884;2023-06-14T12:23:40;1.63;;;1.50;;
16689;SDS011;8458;52.220;9.884;2023-06-14T12:26:15;1.95;;;1.50;;
16689;SDS011;8458;52.220;9.884;2023-06-14T12:28:43;1.88;;;1.50;;
16689;SDS011;8458;52.220;9.884;2023-06-14T12:31:11;1.67;;;1.58;;
16689;SDS011;8458;52.220;9.884;2023-06-14T12:33:38;1.58;;;1.48;;
16689;SDS011;8458;52.220;9.884;2023-06-14T12:36:06;2.45;;;1.58;;
16689;SDS011;8458;52.220;9.884;2023-06-14T12:38:33;5.18;;;1.80;;
16689;SDS011;8458;52.220;9.884;2023-06-14T12:41:01;2.08;;;1.63;;
16689;SDS011;8458;52.220;9.884;2023-06-14T12:43:28;2.15;;;1.90;;
16689;SDS011;8458;52.220;9.884;2023-06-14T12:45:54;2.63;;;1.52;;
16689;SDS011;8458;52.220;9.884;2023-06-14T12:48:21;3.08;;;2.28;;
16689;SDS011;8458;52.220;9.884;2023-06-14T12:50:48;4.32;;;1.70;;
16689;SDS011;8458;52.220;9.884;2023-06-14T12:53:14;3.15;;;1.70;;
16689;SDS011;8458;52.220;9.884;2023-06-14T12:55:41;1.85;;;1.75;;
16689;SDS011;8458;52.220;9.884;2023-06-14T12:58:08;3.75;;;1.80;;
16689;SDS011;8458;52.220;9.884;2023-06-14T13:00:37;2.78;;;2.10;;
16689;SDS011;8458;52.220;9.884;2023-06-14T13:03:03;1.95;;;1.70;;
16689;SDS011;8458;52.220;9.884;2023-06-14T13:05:30;3.65;;;2.20;;
16689;SDS011;8458;52.220;9.884;2023-06-14T13:07:58;5.13;;;1.98;;
16689;SDS011;8458;52.220;9.884;2023-06-14T13:10:25;6.18;;;2.50;;
16689;SDS011;8458;52.220;9.884;2023-06-14T13:12:52;4.90;;;2.00;;
16689;SDS011;8458;52.220;9.884;2023-06-14T13:15:20;3.60;;;2.20;;
16689;SDS011;8458;52.220;9.884;2023-06-14T13:17:46;5.85;;;2.30;;
16689;SDS011;8458;52.220;9.884;2023-06-14T13:20:14;2.10;;;1.90;;
16689;SDS011;8458;52.220;9.884;2023-06-14T13:22:40;2.22;;;1.98;;
16689;SDS011;8458;52.220;9.884;2023-06-14T13:25:07;2.38;;;2.13;;
16689;SDS011;8458;52.220;9.884;2023-06-14T13:27:34;3.72;;;2.10;;
16689;SDS011;8458;52.220;9.884;2023-06-14T13:30:00;2.22;;;1.98;;
16689;SDS011;8458;52.220;9.884;2023-06-14T13:32:28;2.53;;;1.92;;
16689;SDS011;8458;52.220;9.884;2023-06-14T13:34:54;2.50;;;1.83;;
16689;SDS011;8458;52.220;9.884;2023-06-14T13:37:21;3.38;;;2.10;;
16689;SDS011;8458;52.220;9.884;2023-06-14T13:39:47;4.93;;;2.83;;
16689;SDS011;8458;52.220;9.884;2023-06-14T13:42:14;5.70;;;2.13;;
16689;SDS011;8458;52.220;9.884;2023-06-14T13:44:40;2.25;;;2.05;;
16689;SDS011;8458;52.220;9.884;2023-06-14T13:47:07;2.88;;;1.90;;
16689;SDS011;8458;52.220;9.884;2023-06-14T13:49:35;3.08;;;2.08;;
16689;SDS011;8458;52.220;9.884;2023-06-14T13:52:01;2.88;;;2.05;;
16689;SDS011;8458;52.220;9.884;2023-06-14T13:54:28;2.00;;;1.77;;
16689;SDS011;8458;52.220;9.884;2023-06-14T13:56:55;2.38;;;1.77;;
16689;SDS011;8458;52.220;9.884;2023-06-14T13:59:21;2.13;;;1.80;;
16689;SDS011;8458;52.220;9.884;2023-06-14T14:01:48;1.88;;;1.75;;
16689;SDS011;8458;52.220;9.884;2023-06-14T14:04:14;15.80;;;2.58;;
16689;SDS011;8458;52.220;9.884;2023-06-14T14:06:42;3.25;;;2.33;;
16689;SDS011;8458;52.220;9.884;2023-06-14T14:09:09;2.75;;;1.70;;
16689;SDS011;8458;52.220;9.884;2023-06-14T14:11:35;2.50;;;1.92;;
16689;SDS011;8458;52.220;9.884;2023-06-14T14:14:02;3.20;;;1.90;;
16689;SDS011;8458;52.220;9.884;2023-06-14T14:16:30;2.63;;;1.77;;
16689;SDS011;8458;52.220;9.884;2023-06-14T14:18:56;1.90;;;1.80;;
16689;SDS011;8458;52.220;9.884;2023-06-14T14:21:23;1.83;;;1.73;;
16689;SDS011;8458;52.220;9.884;2023-06-14T14:23:50;1.77;;;1.67;;
16689;SDS011;8458;52.220;9.884;2023-06-14T14:26:17;3.60;;;1.77;;
16689;SDS011;8458;52.220;9.884;2023-06-14T14:28:43;2.85;;;1.92;;
16689;SDS011;8458;52.220;9.884;2023-06-14T14:31:10;3.25;;;1.90;;
16689;SDS011;8458;52.220;9.884;2023-06-14T14:33:36;2.10;;;1.90;;
16689;SDS011;8458;52.220;9.884;2023-06-14T14:36:03;3.00;;;1.95;;
16689;SDS011;8458;52.220;9.884;2023-06-14T14:38:31;2.25;;;1.90;;
16689;SDS011;8458;52.220;9.884;2023-06-14T14:40:59;2.83;;;1.92;;
16689;SDS011;8458;52.220;9.884;2023-06-14T14:43:26;1.77;;;1.67;;
16689;SDS011;8458;52.220;9.884;2023-06-14T14:45:55;2.20;;;1.98;;
16689;SDS011;8458;52.220;9.884;2023-06-14T14:48:22;2.42;;;2.00;;
16689;SDS011;8458;52.220;9.884;2023-06-14T14:50:48;2.38;;;1.92;;
16689;SDS011;8458;52.220;9.884;2023-06-14T14:53:15;2.72;;;2.10;;
16689;SDS011;8458;52.220;9.884;2023-06-14T14:55:42;1.85;;;1.75;;
16689;SDS011;8458;52.220;9.884;2023-06-14T14:58:11;2.42;;;2.22;;
16689;SDS011;8458;52.220;9.884;2023-06-14T15:00:41;2.67;;;1.70;;
16689;SDS011;8458;52.220;9.884;2023-06-14T15:03:08;1.95;;;1.80;;